createdAt,value
2023-04-01T00:00:43.374Z,100701.22
2023-04-01T00:03:12.633Z,100684.28
2023-04-01T00:05:42.387Z,100679.63
2023-04-01T00:08:11.706Z,100678.69
2023-04-01T00:10:41.119Z,100677.69
2023-04-01T00:13:10.111Z,100672.41
2023-04-01T00:15:39.332Z,100667.63
2023-04-01T00:18:08.376Z,100666.13
2023-04-01T00:20:37.689Z,100661.22
2023-04-01T00:23:07.165Z,100657.59
2023-04-01T00:25:36.168Z,100645.19
2023-04-01T00:28:05.109Z,100644.78
2023-04-01T00:30:34.214Z,100645.09
2023-04-01T00:33:03.362Z,100641.75
2023-04-01T00:35:35.540Z,100631.59
2023-04-01T00:38:05.268Z,100625.28
2023-04-01T00:40:41.131Z,100618.06
2023-04-01T00:43:16.402Z,100620.31
2023-04-01T00:45:47.217Z,100614.78
2023-04-01T00:48:24.963Z,100610.91
2023-04-01T00:51:09.729Z,100598.81
2023-04-01T00:53:45.160Z,100601.31
2023-04-01T00:56:27.170Z,100601.38
2023-04-01T00:59:16.318Z,100594.66
2023-04-01T01:01:47.771Z,100600.47
2023-04-01T01:04:37.680Z,100590.44
2023-04-01T01:07:46.525Z,100586.22
2023-04-01T01:10:37.867Z,100587.78
2023-04-01T01:13:25.572Z,100588.56
2023-04-01T01:16:16.115Z,100582.25
2023-04-01T01:19:14.192Z,100579.78
2023-04-01T01:21:49.079Z,100558.47
2023-04-01T01:24:35.863Z,100555.41
2023-04-01T01:27:12.438Z,100556.84
2023-04-01T01:30:17.321Z,100564.00
2023-04-01T01:33:47.926Z,100567.16
2023-04-01T01:36:19.872Z,100566.34
2023-04-01T01:39:01.959Z,100559.31
2023-04-01T01:41:36.610Z,100552.53
2023-04-01T01:44:33.140Z,100550.88
2023-04-01T01:47:04.925Z,100545.66
2023-04-01T01:49:38.028Z,100534.53
2023-04-01T01:52:07.306Z,100540.84
2023-04-01T01:54:49.208Z,100526.00
2023-04-01T01:57:34.189Z,100528.31
2023-04-01T02:00:18.260Z,100518.66
2023-04-01T02:02:50.712Z,100511.13
2023-04-01T02:05:58.003Z,100505.78
2023-04-01T02:13:24.493Z,100488.94
2023-04-01T02:15:49.404Z,100481.94
2023-04-01T02:18:22.437Z,100484.22
2023-04-01T02:21:01.553Z,100486.28
2023-04-01T02:23:30.867Z,100471.97
2023-04-01T02:26:00.120Z,100468.22
2023-04-01T02:29:19.127Z,100473.13
2023-04-01T02:31:53.523Z,100464.78
2023-04-01T02:34:27.178Z,100457.44
2023-04-01T02:36:57.908Z,100463.41
2023-04-01T02:40:28.718Z,100452.28
2023-04-01T02:42:57.853Z,100440.19
2023-04-01T02:45:26.917Z,100439.81
2023-04-01T02:47:55.862Z,100435.94
2023-04-01T02:50:25.173Z,100437.91
2023-04-01T02:52:58.080Z,100429.44
2023-04-01T02:55:27.621Z,100418.91
2023-04-01T02:57:58.261Z,100412.56
2023-04-01T03:00:32.720Z,100412.28
2023-04-01T03:03:03.264Z,100405.44
2023-04-01T03:05:35.976Z,100409.31
2023-04-01T03:08:05.787Z,100397.09
2023-04-01T03:10:34.977Z,100400.28
2023-04-01T03:13:04.385Z,100382.53
2023-04-01T03:15:33.813Z,100380.56
2023-04-01T03:18:03.438Z,100380.66
2023-04-01T03:20:35.543Z,100379.81
2023-04-01T03:23:04.809Z,100382.91
2023-04-01T03:25:33.983Z,100380.50
2023-04-01T03:28:04.003Z,100374.72
2023-04-01T03:30:33.189Z,100372.81
2023-04-01T03:33:05.186Z,100364.78
2023-04-01T03:35:35.303Z,100369.19
2023-04-01T03:38:07.132Z,100365.28
2023-04-01T03:40:39.103Z,100355.69
2023-04-01T03:43:10.740Z,100372.06
2023-04-01T03:45:47.981Z,100372.69
2023-04-01T03:48:17.680Z,100371.69
2023-04-01T03:50:47.413Z,100362.81
2023-04-01T03:53:17.201Z,100365.63
2023-04-01T03:55:49.325Z,100358.66
2023-04-01T03:58:21.403Z,100353.59
2023-04-01T04:00:51.024Z,100356.56
2023-04-01T04:03:20.199Z,100347.28
2023-04-01T04:05:52.528Z,100334.34
2023-04-01T04:08:23.338Z,100336.97
2023-04-01T04:10:59.309Z,100335.88
2023-04-01T04:13:28.445Z,100334.59
2023-04-01T04:16:02.803Z,100334.59
2023-04-01T04:18:32.338Z,100334.16
2023-04-01T04:21:01.323Z,100328.16
2023-04-01T04:23:31.703Z,100324.25
2023-04-01T04:26:07.545Z,100322.69
2023-04-01T04:28:38.447Z,100324.00
2023-04-01T04:31:08.187Z,100322.31
2023-04-01T04:33:38.433Z,100312.59
2023-04-01T04:36:08.300Z,100310.59
2023-04-01T04:38:37.374Z,100302.28
2023-04-01T04:41:12.102Z,100297.56
2023-04-01T04:43:43.281Z,100306.81
2023-04-01T04:46:13.944Z,100301.50
2023-04-01T04:48:47.296Z,100287.88
2023-04-01T04:51:41.233Z,100271.09
2023-04-01T04:54:34.274Z,100271.13
2023-04-01T04:57:05.942Z,100255.91
2023-04-01T04:59:41.411Z,100252.44
2023-04-01T05:02:16.841Z,100239.72
2023-04-01T05:04:46.177Z,100241.69
2023-04-01T05:07:15.339Z,100242.03
2023-04-01T05:09:46.926Z,100245.38
2023-04-01T05:12:19.302Z,100234.94
2023-04-01T05:15:08.212Z,100227.69
2023-04-01T05:17:37.413Z,100225.78
2023-04-01T05:20:09.961Z,100225.97
2023-04-01T05:22:39.157Z,100220.28
2023-04-01T05:25:09.685Z,100214.38
2023-04-01T05:27:38.849Z,100227.56
2023-04-01T05:30:08.546Z,100214.59
2023-04-01T05:33:03.505Z,100207.97
2023-04-01T05:35:33.127Z,100208.69
2023-04-01T05:38:03.292Z,100221.88
2023-04-01T05:40:32.822Z,100212.69
2023-04-01T05:43:02.545Z,100216.38
2023-04-01T05:45:32.127Z,100217.63
2023-04-01T05:48:17.181Z,100228.50
2023-04-01T05:50:46.634Z,100236.19
2023-04-01T05:53:16.702Z,100244.97
2023-04-01T05:55:46.347Z,100248.22
2023-04-01T05:58:16.529Z,100247.63
2023-04-01T06:00:56.029Z,100254.81
2023-04-01T06:03:31.786Z,100254.75
2023-04-01T06:06:03.151Z,100266.81
2023-04-01T06:08:34.674Z,100254.75
2023-04-01T06:11:29.146Z,100267.44
2023-04-01T06:14:12.127Z,100268.09
2023-04-01T06:16:49.827Z,100282.91
2023-04-01T06:19:49.232Z,100281.69
2023-04-01T06:22:58.961Z,100286.25
2023-04-01T06:25:53.022Z,100271.63
2023-04-01T06:28:41.637Z,100283.16
2023-04-01T06:31:34.821Z,100279.16
2023-04-01T06:34:36.148Z,100282.41
2023-04-01T06:37:37.975Z,100275.53
2023-04-01T06:40:45.601Z,100285.75
2023-04-01T06:43:35.172Z,100299.16
2023-04-01T06:47:07.726Z,100290.91
2023-04-01T06:50:14.541Z,100290.03
2023-04-01T06:53:34.336Z,100293.69
2023-04-01T06:56:17.288Z,100297.72
2023-04-01T06:59:17.918Z,100298.63
2023-04-01T07:01:56.065Z,100302.16
2023-04-01T07:04:33.474Z,100316.19
2023-04-01T07:07:12.875Z,100325.16
2023-04-01T07:10:00.961Z,100326.69
2023-04-01T07:12:39.487Z,100333.06
2023-04-01T07:15:45.509Z,100341.03
2023-04-01T07:18:49.105Z,100336.38
2023-04-01T07:21:43.380Z,100335.09
2023-04-01T07:24:32.111Z,100343.34
2023-04-01T07:27:12.902Z,100345.22
2023-04-01T07:29:44.738Z,100345.97
2023-04-01T07:32:47.620Z,100351.72
2023-04-01T07:35:43.444Z,100359.31
2023-04-01T07:38:45.665Z,100368.44
2023-04-01T07:41:48.366Z,100375.84
2023-04-01T07:44:41.180Z,100383.13
2023-04-01T07:47:46.298Z,100382.19
2023-04-01T07:50:46.528Z,100387.69
2023-04-01T07:53:46.311Z,100392.41
2023-04-01T07:56:31.305Z,100406.13
2023-04-01T07:59:08.398Z,100415.97
2023-04-01T08:02:24.988Z,100415.16
2023-04-01T08:05:22.229Z,100409.81
2023-04-01T08:08:18.904Z,100414.06
2023-04-01T08:11:10.909Z,100411.31
2023-04-01T08:14:13.807Z,100405.53
2023-04-01T08:17:08.398Z,100406.81
2023-04-01T08:20:04.583Z,100424.94
2023-04-01T08:22:50.448Z,100428.13
2023-04-01T08:25:29.346Z,100442.16
2023-04-01T08:28:06.683Z,100441.66
2023-04-01T08:30:52.607Z,100445.34
2023-04-01T08:33:33.234Z,100446.22
2023-04-01T08:36:26.954Z,100465.06
2023-04-01T08:39:17.237Z,100463.59
2023-04-01T08:42:17.172Z,100460.34
2023-04-01T08:45:31.851Z,100465.06
2023-04-01T08:48:11.011Z,100471.13
2023-04-01T08:51:13.787Z,100460.25
2023-04-01T08:54:20.539Z,100456.34
2023-04-01T08:57:17.563Z,100461.00
2023-04-01T09:00:21.833Z,100462.72
2023-04-01T09:03:33.903Z,100463.16
2023-04-01T09:06:31.389Z,100478.50
2023-04-01T09:09:38.931Z,100475.25
2023-04-01T09:12:35.856Z,100480.13
2023-04-01T09:15:14.636Z,100474.69
2023-04-01T09:18:03.998Z,100479.34
2023-04-01T09:21:07.998Z,100488.28
2023-04-01T09:24:04.761Z,100489.88
2023-04-01T09:27:08.545Z,100493.44
2023-04-01T09:30:07.423Z,100499.03
2023-04-01T09:33:09.191Z,100491.22
2023-04-01T09:35:49.880Z,100492.72
2023-04-01T09:38:30.905Z,100497.94
2023-04-01T09:41:03.086Z,100504.34
2023-04-01T09:43:43.695Z,100500.00
2023-04-01T09:46:50.217Z,100503.63
2023-04-01T09:49:28.205Z,100501.34
2023-04-01T09:52:12.666Z,100494.69
2023-04-01T09:55:08.674Z,100495.22
2023-04-01T09:58:02.725Z,100495.84
2023-04-01T10:01:15.362Z,100495.56
2023-04-01T10:03:50.501Z,100502.22
2023-04-01T10:07:00.736Z,100501.69
2023-04-01T10:10:01.965Z,100497.25
2023-04-01T10:12:52.495Z,100502.03
2023-04-01T10:15:45.613Z,100495.75
2023-04-01T10:18:18.081Z,100494.22
2023-04-01T10:21:17.143Z,100502.22
2023-04-01T10:24:08.302Z,100503.38
2023-04-01T10:27:16.645Z,100514.97
2023-04-01T10:30:16.542Z,100506.75
2023-04-01T10:33:22.879Z,100519.44
2023-04-01T10:36:33.016Z,100530.59
2023-04-01T10:39:39.321Z,100520.50
2023-04-01T10:42:59.187Z,100510.91
2023-04-01T10:45:59.107Z,100517.84
2023-04-01T10:49:02.974Z,100514.09
2023-04-01T10:52:00.340Z,100507.28
2023-04-01T10:55:11.057Z,100497.44
2023-04-01T10:58:39.709Z,100502.41
2023-04-01T11:01:47.905Z,100498.84
2023-04-01T11:05:12.957Z,100492.34
2023-04-01T11:08:04.755Z,100491.69
2023-04-01T11:11:04.977Z,100502.94
2023-04-01T11:14:01.863Z,100498.84
2023-04-01T11:16:51.397Z,100517.84
2023-04-01T11:20:23.237Z,100507.66
2023-04-01T11:23:12.960Z,100506.84
2023-04-01T11:26:34.869Z,100500.00
2023-04-01T11:29:34.623Z,100502.22
2023-04-01T11:32:37.148Z,100495.03
2023-04-01T11:35:51.128Z,100505.41
2023-04-01T11:38:54.727Z,100502.94
2023-04-01T11:42:25.334Z,100504.88
2023-04-01T11:45:27.650Z,100501.50
2023-04-01T11:48:24.838Z,100510.91
2023-04-01T11:51:07.368Z,100505.06
2023-04-01T11:54:21.192Z,100492.00
2023-04-01T11:57:18.328Z,100502.94
2023-04-01T12:00:05.579Z,100511.00
2023-04-01T12:03:05.130Z,100501.84
2023-04-01T12:05:46.317Z,100489.25
2023-04-01T12:08:23.950Z,100491.22
2023-04-01T12:11:02.676Z,100491.59
2023-04-01T12:13:47.886Z,100493.91
2023-04-01T12:16:33.955Z,100481.00
2023-04-01T12:19:38.752Z,100485.75
2023-04-01T12:22:23.833Z,100488.41
2023-04-01T12:25:26.337Z,100491.50
2023-04-01T12:28:14.903Z,100484.84
2023-04-01T12:30:55.078Z,100476.34
2023-04-01T12:34:09.597Z,100476.88
2023-04-01T12:36:57.354Z,100466.31
2023-04-01T12:39:57.968Z,100473.50
2023-04-01T12:42:46.324Z,100471.19
2023-04-01T12:45:35.631Z,100467.81
2023-04-01T12:48:45.027Z,100473.13
2023-04-01T12:51:34.081Z,100471.72
2023-04-01T12:54:40.088Z,100476.34
2023-04-01T12:57:17.288Z,100469.94
2023-04-01T13:00:16.700Z,100474.72
2023-04-01T13:03:24.948Z,100488.75
2023-04-01T13:06:24.442Z,100490.25
2023-04-01T13:09:18.913Z,100493.84
2023-04-01T13:12:25.105Z,100490.25
2023-04-01T13:15:12.942Z,100479.94
2023-04-01T13:18:28.943Z,100480.75
2023-04-01T13:21:16.238Z,100484.66
2023-04-01T13:23:57.733Z,100484.13
2023-04-01T13:26:53.664Z,100476.06
2023-04-01T13:30:01.771Z,100476.59
2023-04-01T13:32:59.085Z,100464.44
2023-04-01T13:35:51.212Z,100486.53
2023-04-01T13:38:41.547Z,100479.69
2023-04-01T13:41:29.332Z,100487.16
2023-04-01T13:44:15.886Z,100486.97
2023-04-01T13:47:19.181Z,100489.72
2023-04-01T13:51:23.192Z,100492.84
2023-04-01T13:54:14.813Z,100498.81
2023-04-01T13:57:11.408Z,100510.53
2023-04-01T14:00:08.231Z,100514.56
2023-04-01T14:03:12.715Z,100515.22
2023-04-01T14:05:51.092Z,100516.03
2023-04-01T14:08:45.183Z,100522.75
2023-04-01T14:11:55.554Z,100522.94
2023-04-01T14:15:03.809Z,100528.44
2023-04-01T14:17:52.544Z,100519.22
2023-04-01T14:21:08.517Z,100549.91
2023-04-01T14:24:10.594Z,100540.50
2023-04-01T14:27:05.033Z,100537.50
2023-04-01T14:29:59.154Z,100545.59
2023-04-01T14:32:55.504Z,100559.09
2023-04-01T14:35:28.571Z,100565.41
2023-04-01T14:38:09.696Z,100555.97
2023-04-01T14:40:53.896Z,100566.97
2023-04-01T14:43:46.999Z,100562.97
2023-04-01T14:46:40.936Z,100571.28
2023-04-01T14:49:32.758Z,100577.56
2023-04-01T14:52:35.899Z,100582.66
2023-04-01T14:55:47.055Z,100576.88
2023-04-01T14:58:23.589Z,100576.41
2023-04-01T15:01:25.518Z,100578.66
2023-04-01T15:04:19.174Z,100584.16
2023-04-01T15:07:12.035Z,100584.97
2023-04-01T15:10:21.317Z,100588.03
2023-04-01T15:13:00.240Z,100580.44
2023-04-01T15:16:05.191Z,100593.94
2023-04-01T15:19:03.056Z,100589.25
2023-04-01T15:21:43.919Z,100592.03
2023-04-01T15:24:36.990Z,100596.41
2023-04-01T15:27:27.672Z,100605.56
2023-04-01T15:30:14.791Z,100608.31
2023-04-01T15:33:08.053Z,100605.38
2023-04-01T15:36:12.090Z,100612.84
2023-04-01T15:38:57.916Z,100617.63
2023-04-01T15:41:48.557Z,100618.25
2023-04-01T15:44:35.812Z,100623.63
2023-04-01T15:47:17.997Z,100636.47
2023-04-01T15:49:56.263Z,100623.66
2023-04-01T15:52:52.073Z,100629.59
2023-04-01T15:55:49.694Z,100626.22
2023-04-01T15:58:27.516Z,100626.72
2023-04-01T16:01:52.172Z,100626.72
2023-04-01T16:04:42.050Z,100626.66
2023-04-01T16:07:13.905Z,100623.75
2023-04-01T16:09:50.860Z,100623.75
2023-04-01T16:13:00.599Z,100618.25
2023-04-01T16:15:58.779Z,100613.63
2023-04-01T16:18:47.332Z,100623.41
2023-04-01T16:21:47.836Z,100632.81
2023-04-01T16:24:42.488Z,100634.81
2023-04-01T16:27:40.173Z,100643.81
2023-04-01T16:30:48.465Z,100647.13
2023-04-01T16:33:45.828Z,100650.75
2023-04-01T16:36:53.434Z,100657.25
2023-04-01T16:39:45.764Z,100660.63
2023-04-01T16:42:51.256Z,100672.81
2023-04-01T16:45:56.567Z,100675.13
2023-04-01T16:48:45.598Z,100657.91
2023-04-01T16:51:22.880Z,100661.44
2023-04-01T16:54:35.451Z,100676.72
2023-04-01T16:57:10.726Z,100668.03
2023-04-01T17:00:00.466Z,100680.09
2023-04-01T17:02:37.352Z,100676.91
2023-04-01T17:05:12.228Z,100680.63
2023-04-01T17:08:10.116Z,100677.31
2023-04-01T17:10:38.778Z,100682.56
2023-04-01T17:13:10.984Z,100694.09
2023-04-01T17:16:18.310Z,100689.50
2023-04-01T17:19:04.871Z,100693.81
2023-04-01T17:21:49.937Z,100700.72
2023-04-01T17:24:37.762Z,100700.81
2023-04-01T17:27:39.265Z,100691.50
2023-04-01T17:30:38.629Z,100700.50
2023-04-01T17:33:28.197Z,100704.19
2023-04-01T17:36:08.537Z,100714.69
2023-04-01T17:39:07.679Z,100707.91
2023-04-01T17:42:04.807Z,100705.81
2023-04-01T17:44:50.327Z,100712.38
2023-04-01T17:47:25.391Z,100703.25
2023-04-01T17:50:36.199Z,100706.53
2023-04-01T17:53:09.270Z,100706.19
2023-04-01T17:55:48.381Z,100713.78
2023-04-01T17:58:45.626Z,100717.28
2023-04-01T18:01:34.485Z,100701.91
2023-04-01T18:04:30.698Z,100705.56
2023-04-01T18:07:31.192Z,100711.63
2023-04-01T18:10:23.983Z,100713.47
2023-04-01T18:13:22.440Z,100710.16
2023-04-01T18:16:44.343Z,100712.53
2023-04-01T18:19:47.015Z,100720.75
2023-04-01T18:22:40.262Z,100721.56
2023-04-01T18:25:35.154Z,100720.31
2023-04-01T18:28:30.745Z,100724.50
2023-04-01T18:31:09.369Z,100725.22
2023-04-01T18:34:20.194Z,100728.22
2023-04-01T18:37:15.762Z,100724.59
2023-04-01T18:39:51.919Z,100732.66
2023-04-01T18:43:31.880Z,100717.72
2023-04-01T18:47:13.584Z,100728.91
2023-04-01T18:49:56.732Z,100733.59
2023-04-01T18:52:46.416Z,100729.66
2023-04-01T18:55:55.907Z,100729.22
2023-04-01T18:58:36.494Z,100724.59
2023-04-01T19:01:36.310Z,100731.28
2023-04-01T19:04:12.969Z,100721.50
2023-04-01T19:06:49.327Z,100722.28
2023-04-01T19:09:49.630Z,100714.75
2023-04-01T19:12:48.660Z,100718.38
2023-04-01T19:16:14.308Z,100720.53
2023-04-01T19:19:16.398Z,100717.94
2023-04-01T19:22:20.343Z,100729.66
2023-04-01T19:25:33.639Z,100725.16
2023-04-01T19:28:24.539Z,100709.16
2023-04-01T19:31:10.914Z,100697.75
2023-04-01T19:34:41.763Z,100709.78
2023-04-01T19:37:41.062Z,100717.22
2023-04-01T19:40:41.001Z,100703.22
2023-04-01T19:43:41.133Z,100712.25
2023-04-01T19:46:37.181Z,100704.28
2023-04-01T19:49:21.244Z,100700.34
2023-04-01T19:52:26.014Z,100705.47
2023-04-01T19:55:23.574Z,100713.78
2023-04-01T19:59:08.332Z,100706.38
2023-04-01T20:02:24.765Z,100707.88
2023-04-01T20:05:39.550Z,100701.59
2023-04-01T20:08:38.417Z,100708.63
2023-04-01T20:11:25.882Z,100699.44
2023-04-01T20:14:15.539Z,100702.47
2023-04-01T20:17:28.027Z,100705.81
2023-04-01T20:20:29.427Z,100699.47
2023-04-01T20:23:02.639Z,100706.78
2023-04-01T20:26:35.270Z,100708.00
2023-04-01T20:29:53.577Z,100697.44
2023-04-01T20:32:36.668Z,100696.91
2023-04-01T20:35:44.009Z,100698.28
2023-04-01T20:38:34.450Z,100682.44
2023-04-01T20:41:22.512Z,100696.78
2023-04-01T20:44:26.390Z,100703.91
2023-04-01T20:47:52.466Z,100682.78
2023-04-01T20:51:04.998Z,100689.66
2023-04-01T20:54:34.241Z,100689.03
2023-04-01T20:57:50.352Z,100701.78
2023-04-01T21:01:37.169Z,100676.31
2023-04-01T21:04:28.157Z,100659.63
2023-04-01T21:07:16.331Z,100664.44
2023-04-01T21:10:18.795Z,100674.47
2023-04-01T21:13:21.937Z,100694.41
2023-04-01T21:15:55.488Z,100698.94
2023-04-01T21:19:17.724Z,100698.88
2023-04-01T21:22:47.896Z,100722.44
2023-04-01T21:25:55.257Z,100715.56
2023-04-01T21:29:03.336Z,100719.06
2023-04-01T21:32:08.912Z,100704.78
2023-04-01T21:35:08.233Z,100704.22
2023-04-01T21:38:32.618Z,100710.09
2023-04-01T21:41:16.051Z,100707.81
2023-04-01T21:48:07.283Z,100706.91
2023-04-01T21:54:26.993Z,100714.94
2023-04-01T21:57:58.100Z,100721.09
2023-04-01T22:01:11.446Z,100692.56
2023-04-01T22:04:05.073Z,100708.91
2023-04-01T22:07:03.718Z,100706.28
2023-04-01T22:09:59.144Z,100704.22
2023-04-01T22:13:19.802Z,100707.00
2023-04-01T22:16:05.801Z,100697.53
2023-04-01T22:19:05.380Z,100702.28
2023-04-01T22:22:04.300Z,100705.09
2023-04-01T22:24:42.038Z,100715.44
2023-04-01T22:27:51.250Z,100703.66
2023-04-01T22:31:16.942Z,100703.56
2023-04-01T22:34:35.429Z,100714.81
2023-04-01T22:37:36.766Z,100715.97
2023-04-01T22:44:04.139Z,100725.22
2023-04-01T22:48:26.892Z,100731.56
2023-04-01T22:55:09.747Z,100735.06
2023-04-01T22:58:50.805Z,100744.91
2023-04-01T23:01:41.377Z,100751.53
2023-04-01T23:04:53.963Z,100745.84
2023-04-01T23:07:58.751Z,100747.19
2023-04-01T23:11:57.275Z,100740.69
2023-04-01T23:15:51.867Z,100743.13
2023-04-01T23:19:31.006Z,100742.81
2023-04-01T23:22:40.874Z,100749.25
2023-04-01T23:25:49.785Z,100751.25
2023-04-01T23:28:51.015Z,100761.84
2023-04-01T23:31:59.462Z,100746.09
2023-04-01T23:34:39.157Z,100758.94
2023-04-01T23:37:17.881Z,100761.81
2023-04-01T23:39:54.222Z,100756.19
2023-04-01T23:42:41.379Z,100752.88
2023-04-01T23:49:14.332Z,100761.56
2023-04-01T23:51:59.143Z,100765.59
2023-04-01T23:54:50.281Z,100763.47
2023-04-01T23:58:39.942Z,100778.28
